sensor_id;sensor_type;location;lat;lon;timestamp;P1;durP1;ratioP1;P2;durP2;ratioP2
69246;SDS011;56358;56.328;43.992;2022-12-15T00:00:34;9.52;;;4.03;;
69246;SDS011;56358;56.328;43.992;2022-12-15T00:02:54;8.93;;;3.92;;
69246;SDS011;56358;56.328;43.992;2022-12-15T00:05:13;9.02;;;3.42;;
69246;SDS011;56358;56.328;43.992;2022-12-15T00:07:32;10.20;;;3.88;;
69246;SDS011;56358;56.328;43.992;2022-12-15T00:09:52;7.35;;;3.05;;
69246;SDS011;56358;56.328;43.992;2022-12-15T00:12:11;6.97;;;3.35;;
69246;SDS011;56358;56.328;43.992;2022-12-15T00:14:30;8.35;;;3.38;;
69246;SDS011;56358;56.328;43.992;2022-12-15T00:16:50;8.68;;;3.65;;
69246;SDS011;56358;56.328;43.992;2022-12-15T00:19:09;8.25;;;2.92;;
69246;SDS011;56358;56.328;43.992;2022-12-15T00:21:28;5.25;;;2.70;;
69246;SDS011;56358;56.328;43.992;2022-12-15T00:23:47;10.38;;;3.33;;
69246;SDS011;56358;56.328;43.992;2022-12-15T00:26:07;8.05;;;3.58;;
69246;SDS011;56358;56.328;43.992;2022-12-15T00:28:26;6.03;;;3.15;;
69246;SDS011;56358;56.328;43.992;2022-12-15T00:30:45;8.05;;;3.60;;
69246;SDS011;56358;56.328;43.992;2022-12-15T00:33:08;6.95;;;2.95;;
69246;SDS011;56358;56.328;43.992;2022-12-15T00:37:47;9.68;;;3.33;;
69246;SDS011;56358;56.328;43.992;2022-12-15T00:40:06;6.80;;;3.13;;
69246;SDS011;56358;56.328;43.992;2022-12-15T00:42:07;9.27;;;3.72;;
69246;SDS011;56358;56.328;43.992;2022-12-15T00:44:09;10.93;;;3.33;;
69246;SDS011;56358;56.328;43.992;2022-12-15T00:46:10;8.02;;;3.63;;
69246;SDS011;56358;56.328;43.992;2022-12-15T00:48:29;6.82;;;3.17;;
69246;SDS011;56358;56.328;43.992;2022-12-15T00:50:29;8.93;;;3.35;;
69246;SDS011;56358;56.328;43.992;2022-12-15T00:52:48;7.68;;;3.53;;
69246;SDS011;56358;56.328;43.992;2022-12-15T00:55:08;7.38;;;3.13;;
69246;SDS011;56358;56.328;43.992;2022-12-15T00:57:27;6.47;;;3.50;;
69246;SDS011;56358;56.328;43.992;2022-12-15T00:59:46;10.32;;;3.95;;
69246;SDS011;56358;56.328;43.992;2022-12-15T01:02:06;9.52;;;2.95;;
69246;SDS011;56358;56.328;43.992;2022-12-15T01:04:25;11.10;;;3.88;;
69246;SDS011;56358;56.328;43.992;2022-12-15T01:06:45;8.15;;;3.25;;
69246;SDS011;56358;56.328;43.992;2022-12-15T01:09:05;9.88;;;3.40;;
69246;SDS011;56358;56.328;43.992;2022-12-15T01:11:27;6.43;;;3.00;;
69246;SDS011;56358;56.328;43.992;2022-12-15T01:13:46;5.82;;;2.67;;
69246;SDS011;56358;56.328;43.992;2022-12-15T01:16:09;8.70;;;3.05;;
69246;SDS011;56358;56.328;43.992;2022-12-15T01:18:31;5.50;;;2.88;;
69246;SDS011;56358;56.328;43.992;2022-12-15T01:20:55;6.47;;;2.83;;
69246;SDS011;56358;56.328;43.992;2022-12-15T01:22:57;8.75;;;3.10;;
69246;SDS011;56358;56.328;43.992;2022-12-15T01:24:57;8.02;;;3.03;;
69246;SDS011;56358;56.328;43.992;2022-12-15T01:26:58;7.40;;;3.13;;
69246;SDS011;56358;56.328;43.992;2022-12-15T01:28:59;4.97;;;2.47;;
69246;SDS011;56358;56.328;43.992;2022-12-15T01:30:59;11.05;;;3.30;;
69246;SDS011;56358;56.328;43.992;2022-12-15T01:33:00;6.80;;;2.80;;
69246;SDS011;56358;56.328;43.992;2022-12-15T01:35:01;7.40;;;2.75;;
69246;SDS011;56358;56.328;43.992;2022-12-15T01:37:03;7.72;;;3.22;;
69246;SDS011;56358;56.328;43.992;2022-12-15T01:39:04;6.32;;;2.80;;
69246;SDS011;56358;56.328;43.992;2022-12-15T01:41:06;5.38;;;3.13;;
69246;SDS011;56358;56.328;43.992;2022-12-15T01:43:19;5.55;;;2.78;;
69246;SDS011;56358;56.328;43.992;2022-12-15T01:47:23;7.38;;;3.15;;
69246;SDS011;56358;56.328;43.992;2022-12-15T01:49:27;6.90;;;3.13;;
69246;SDS011;56358;56.328;43.992;2022-12-15T01:51:33;6.30;;;3.00;;
69246;SDS011;56358;56.328;43.992;2022-12-15T01:53:42;5.50;;;2.92;;
69246;SDS011;56358;56.328;43.992;2022-12-15T01:55:47;4.93;;;2.53;;
69246;SDS011;56358;56.328;43.992;2022-12-15T01:57:50;6.13;;;2.70;;
69246;SDS011;56358;56.328;43.992;2022-12-15T01:59:55;7.82;;;2.80;;
69246;SDS011;56358;56.328;43.992;2022-12-15T02:02:01;8.52;;;3.00;;
69246;SDS011;56358;56.328;43.992;2022-12-15T02:04:02;5.38;;;2.80;;
69246;SDS011;56358;56.328;43.992;2022-12-15T02:06:03;8.05;;;2.80;;
69246;SDS011;56358;56.328;43.992;2022-12-15T02:08:04;7.30;;;2.95;;
69246;SDS011;56358;56.328;43.992;2022-12-15T02:10:05;6.05;;;2.67;;
69246;SDS011;56358;56.328;43.992;2022-12-15T02:17:29;6.38;;;3.03;;
69246;SDS011;56358;56.328;43.992;2022-12-15T02:20:00;6.30;;;2.77;;
69246;SDS011;56358;56.328;43.992;2022-12-15T02:24:59;5.22;;;2.70;;
69246;SDS011;56358;56.328;43.992;2022-12-15T02:32:08;7.97;;;2.92;;
69246;SDS011;56358;56.328;43.992;2022-12-15T02:34:16;6.88;;;2.83;;
69246;SDS011;56358;56.328;43.992;2022-12-15T02:36:40;7.25;;;2.65;;
69246;SDS011;56358;56.328;43.992;2022-12-15T02:38:44;8.90;;;3.47;;
69246;SDS011;56358;56.328;43.992;2022-12-15T02:40:45;6.07;;;2.45;;
69246;SDS011;56358;56.328;43.992;2022-12-15T02:42:47;6.78;;;3.25;;
69246;SDS011;56358;56.328;43.992;2022-12-15T02:44:56;6.70;;;2.88;;
69246;SDS011;56358;56.328;43.992;2022-12-15T02:47:14;5.85;;;2.50;;
69246;SDS011;56358;56.328;43.992;2022-12-15T02:58:30;7.50;;;2.88;;
69246;SDS011;56358;56.328;43.992;2022-12-15T03:01:07;7.43;;;2.92;;
69246;SDS011;56358;56.328;43.992;2022-12-15T03:03:13;8.77;;;3.28;;
69246;SDS011;56358;56.328;43.992;2022-12-15T03:05:19;9.60;;;2.78;;
69246;SDS011;56358;56.328;43.992;2022-12-15T03:07:22;8.05;;;3.00;;
69246;SDS011;56358;56.328;43.992;2022-12-15T03:09:26;7.82;;;2.78;;
69246;SDS011;56358;56.328;43.992;2022-12-15T03:11:27;8.05;;;2.80;;
69246;SDS011;56358;56.328;43.992;2022-12-15T03:13:28;7.53;;;3.38;;
69246;SDS011;56358;56.328;43.992;2022-12-15T03:15:29;6.55;;;2.92;;
69246;SDS011;56358;56.328;43.992;2022-12-15T03:17:29;6.45;;;2.83;;
69246;SDS011;56358;56.328;43.992;2022-12-15T03:19:30;8.18;;;3.00;;
69246;SDS011;56358;56.328;43.992;2022-12-15T03:21:31;6.10;;;2.63;;
69246;SDS011;56358;56.328;43.992;2022-12-15T03:23:31;8.25;;;3.38;;
69246;SDS011;56358;56.328;43.992;2022-12-15T03:25:33;11.45;;;3.40;;
69246;SDS011;56358;56.328;43.992;2022-12-15T03:27:33;7.28;;;2.85;;
69246;SDS011;56358;56.328;43.992;2022-12-15T03:29:34;5.75;;;3.10;;
69246;SDS011;56358;56.328;43.992;2022-12-15T03:31:35;8.43;;;3.22;;
69246;SDS011;56358;56.328;43.992;2022-12-15T03:33:35;8.52;;;3.30;;
69246;SDS011;56358;56.328;43.992;2022-12-15T03:35:36;6.78;;;3.05;;
69246;SDS011;56358;56.328;43.992;2022-12-15T03:37:37;9.73;;;3.80;;
69246;SDS011;56358;56.328;43.992;2022-12-15T03:39:38;10.07;;;3.03;;
69246;SDS011;56358;56.328;43.992;2022-12-15T03:41:39;8.63;;;3.13;;
69246;SDS011;56358;56.328;43.992;2022-12-15T03:43:40;7.03;;;3.40;;
69246;SDS011;56358;56.328;43.992;2022-12-15T03:45:41;9.32;;;3.33;;
69246;SDS011;56358;56.328;43.992;2022-12-15T03:47:42;9.45;;;3.33;;
69246;SDS011;56358;56.328;43.992;2022-12-15T03:49:43;9.15;;;3.58;;
69246;SDS011;56358;56.328;43.992;2022-12-15T03:51:44;9.38;;;4.00;;
69246;SDS011;56358;56.328;43.992;2022-12-15T03:53:44;8.63;;;3.70;;
69246;SDS011;56358;56.328;43.992;2022-12-15T03:55:47;9.35;;;3.83;;
69246;SDS011;56358;56.328;43.992;2022-12-15T03:57:47;9.48;;;4.43;;
69246;SDS011;56358;56.328;43.992;2022-12-15T03:59:49;8.82;;;3.47;;
69246;SDS011;56358;56.328;43.992;2022-12-15T04:01:49;12.15;;;3.95;;
69246;SDS011;56358;56.328;43.992;2022-12-15T04:03:50;9.95;;;3.95;;
69246;SDS011;56358;56.328;43.992;2022-12-15T04:05:51;12.23;;;4.20;;
69246;SDS011;56358;56.328;43.992;2022-12-15T04:07:52;6.10;;;3.38;;
69246;SDS011;56358;56.328;43.992;2022-12-15T04:09:53;9.40;;;4.17;;
69246;SDS011;56358;56.328;43.992;2022-12-15T04:11:54;8.05;;;3.45;;
69246;SDS011;56358;56.328;43.992;2022-12-15T04:13:55;9.02;;;3.78;;
69246;SDS011;56358;56.328;43.992;2022-12-15T04:15:55;11.00;;;4.40;;
69246;SDS011;56358;56.328;43.992;2022-12-15T04:17:56;9.80;;;4.40;;
69246;SDS011;56358;56.328;43.992;2022-12-15T04:19:57;8.27;;;3.78;;
69246;SDS011;56358;56.328;43.992;2022-12-15T04:22:10;10.18;;;4.03;;
69246;SDS011;56358;56.328;43.992;2022-12-15T04:24:11;16.48;;;5.10;;
69246;SDS011;56358;56.328;43.992;2022-12-15T04:26:30;11.10;;;4.10;;
69246;SDS011;56358;56.328;43.992;2022-12-15T04:28:49;9.00;;;4.38;;
69246;SDS011;56358;56.328;43.992;2022-12-15T04:31:12;10.50;;;4.32;;
69246;SDS011;56358;56.328;43.992;2022-12-15T04:33:35;12.15;;;4.43;;
69246;SDS011;56358;56.328;43.992;2022-12-15T04:35:56;10.02;;;3.88;;
69246;SDS011;56358;56.328;43.992;2022-12-15T04:38:16;7.85;;;3.92;;
69246;SDS011;56358;56.328;43.992;2022-12-15T04:40:36;11.43;;;4.10;;
69246;SDS011;56358;56.328;43.992;2022-12-15T04:42:55;11.18;;;4.00;;
69246;SDS011;56358;56.328;43.992;2022-12-15T04:45:16;13.25;;;4.32;;
69246;SDS011;56358;56.328;43.992;2022-12-15T04:47:41;7.35;;;3.83;;
69246;SDS011;56358;56.328;43.992;2022-12-15T04:50:00;12.27;;;5.15;;
69246;SDS011;56358;56.328;43.992;2022-12-15T04:52:20;9.98;;;4.22;;
69246;SDS011;56358;56.328;43.992;2022-12-15T04:54:39;11.20;;;4.43;;
69246;SDS011;56358;56.328;43.992;2022-12-15T04:56:58;15.35;;;4.82;;
69246;SDS011;56358;56.328;43.992;2022-12-15T04:59:17;10.90;;;4.30;;
69246;SDS011;56358;56.328;43.992;2022-12-15T05:01:37;11.57;;;4.28;;
69246;SDS011;56358;56.328;43.992;2022-12-15T05:03:56;11.88;;;4.30;;
69246;SDS011;56358;56.328;43.992;2022-12-15T05:06:15;10.18;;;4.35;;
69246;SDS011;56358;56.328;43.992;2022-12-15T05:08:34;12.27;;;5.30;;
69246;SDS011;56358;56.328;43.992;2022-12-15T05:10:53;9.65;;;4.15;;
69246;SDS011;56358;56.328;43.992;2022-12-15T05:13:13;8.00;;;3.75;;
69246;SDS011;56358;56.328;43.992;2022-12-15T05:15:32;12.90;;;4.55;;
69246;SDS011;56358;56.328;43.992;2022-12-15T05:17:51;10.85;;;4.55;;
69246;SDS011;56358;56.328;43.992;2022-12-15T05:20:12;9.18;;;4.13;;
69246;SDS011;56358;56.328;43.992;2022-12-15T05:22:31;13.57;;;4.68;;
69246;SDS011;56358;56.328;43.992;2022-12-15T05:24:50;11.40;;;4.20;;
69246;SDS011;56358;56.328;43.992;2022-12-15T05:27:09;14.65;;;4.57;;
69246;SDS011;56358;56.328;43.992;2022-12-15T05:29:29;9.48;;;4.50;;
69246;SDS011;56358;56.328;43.992;2022-12-15T05:31:48;11.38;;;4.55;;
69246;SDS011;56358;56.328;43.992;2022-12-15T05:33:53;11.43;;;4.47;;
69246;SDS011;56358;56.328;43.992;2022-12-15T05:35:57;10.85;;;4.80;;
69246;SDS011;56358;56.328;43.992;2022-12-15T05:37:58;11.45;;;4.93;;
69246;SDS011;56358;56.328;43.992;2022-12-15T05:39:58;13.63;;;4.53;;
69246;SDS011;56358;56.328;43.992;2022-12-15T05:41:59;14.98;;;5.53;;
69246;SDS011;56358;56.328;43.992;2022-12-15T05:44:00;19.67;;;5.43;;
69246;SDS011;56358;56.328;43.992;2022-12-15T05:46:03;10.85;;;4.93;;
69246;SDS011;56358;56.328;43.992;2022-12-15T05:48:05;11.23;;;4.57;;
69246;SDS011;56358;56.328;43.992;2022-12-15T05:50:06;10.93;;;4.57;;
69246;SDS011;56358;56.328;43.992;2022-12-15T05:52:07;11.63;;;4.60;;
69246;SDS011;56358;56.328;43.992;2022-12-15T05:54:08;12.70;;;5.50;;
69246;SDS011;56358;56.328;43.992;2022-12-15T05:56:11;13.80;;;5.68;;
69246;SDS011;56358;56.328;43.992;2022-12-15T05:58:13;12.75;;;5.82;;
69246;SDS011;56358;56.328;43.992;2022-12-15T06:00:13;11.23;;;5.10;;
69246;SDS011;56358;56.328;43.992;2022-12-15T06:02:15;15.70;;;5.65;;
69246;SDS011;56358;56.328;43.992;2022-12-15T06:04:15;15.60;;;5.32;;
69246;SDS011;56358;56.328;43.992;2022-12-15T06:06:16;12.32;;;4.82;;
69246;SDS011;56358;56.328;43.992;2022-12-15T06:08:17;13.93;;;5.70;;
69246;SDS011;56358;56.328;43.992;2022-12-15T06:10:18;13.88;;;4.78;;
69246;SDS011;56358;56.328;43.992;2022-12-15T06:12:18;13.93;;;5.35;;
69246;SDS011;56358;56.328;43.992;2022-12-15T06:14:19;11.77;;;5.40;;
69246;SDS011;56358;56.328;43.992;2022-12-15T06:16:21;12.23;;;5.50;;
69246;SDS011;56358;56.328;43.992;2022-12-15T06:18:23;13.13;;;4.97;;
69246;SDS011;56358;56.328;43.992;2022-12-15T06:20:25;14.00;;;5.30;;
69246;SDS011;56358;56.328;43.992;2022-12-15T06:22:26;13.02;;;5.45;;
69246;SDS011;56358;56.328;43.992;2022-12-15T06:24:28;12.20;;;5.37;;
69246;SDS011;56358;56.328;43.992;2022-12-15T06:26:30;9.85;;;4.15;;
69246;SDS011;56358;56.328;43.992;2022-12-15T06:28:35;14.02;;;5.75;;
69246;SDS011;56358;56.328;43.992;2022-12-15T06:30:35;16.15;;;5.90;;
69246;SDS011;56358;56.328;43.992;2022-12-15T06:32:37;14.77;;;5.68;;
69246;SDS011;56358;56.328;43.992;2022-12-15T06:34:38;13.60;;;5.95;;
69246;SDS011;56358;56.328;43.992;2022-12-15T06:36:39;10.95;;;5.43;;
69246;SDS011;56358;56.328;43.992;2022-12-15T06:38:40;17.67;;;7.70;;
69246;SDS011;56358;56.328;43.992;2022-12-15T06:40:42;15.23;;;5.60;;
69246;SDS011;56358;56.328;43.992;2022-12-15T06:42:43;11.60;;;4.32;;
69246;SDS011;56358;56.328;43.992;2022-12-15T06:44:43;14.77;;;6.25;;
69246;SDS011;56358;56.328;43.992;2022-12-15T06:46:44;9.15;;;4.43;;
69246;SDS011;56358;56.328;43.992;2022-12-15T06:48:45;12.57;;;4.68;;
69246;SDS011;56358;56.328;43.992;2022-12-15T06:50:46;11.68;;;4.50;;
69246;SDS011;56358;56.328;43.992;2022-12-15T06:52:47;12.02;;;5.13;;
69246;SDS011;56358;56.328;43.992;2022-12-15T06:54:48;10.68;;;4.53;;
69246;SDS011;56358;56.328;43.992;2022-12-15T06:56:48;14.50;;;5.22;;
69246;SDS011;56358;56.328;43.992;2022-12-15T06:58:50;14.63;;;6.05;;
69246;SDS011;56358;56.328;43.992;2022-12-15T07:00:51;14.93;;;5.78;;
69246;SDS011;56358;56.328;43.992;2022-12-15T07:02:52;10.27;;;4.97;;
69246;SDS011;56358;56.328;43.992;2022-12-15T07:04:53;17.05;;;5.53;;
69246;SDS011;56358;56.328;43.992;2022-12-15T07:06:54;12.55;;;6.03;;
69246;SDS011;56358;56.328;43.992;2022-12-15T07:08:56;16.92;;;7.10;;
69246;SDS011;56358;56.328;43.992;2022-12-15T07:10:56;12.07;;;5.70;;
69246;SDS011;56358;56.328;43.992;2022-12-15T07:12:57;12.40;;;5.45;;
69246;SDS011;56358;56.328;43.992;2022-12-15T07:14:58;18.70;;;5.28;;
69246;SDS011;56358;56.328;43.992;2022-12-15T07:16:59;13.15;;;5.38;;
69246;SDS011;56358;56.328;43.992;2022-12-15T07:18:59;19.05;;;6.70;;
69246;SDS011;56358;56.328;43.992;2022-12-15T07:21:01;14.80;;;5.40;;
69246;SDS011;56358;56.328;43.992;2022-12-15T07:23:05;13.90;;;5.32;;
69246;SDS011;56358;56.328;43.992;2022-12-15T07:27:09;18.98;;;6.45;;
69246;SDS011;56358;56.328;43.992;2022-12-15T07:29:09;10.00;;;5.63;;
69246;SDS011;56358;56.328;43.992;2022-12-15T07:31:10;12.63;;;5.70;;
69246;SDS011;56358;56.328;43.992;2022-12-15T07:33:11;12.40;;;5.22;;
69246;SDS011;56358;56.328;43.992;2022-12-15T07:35:12;15.02;;;5.93;;
69246;SDS011;56358;56.328;43.992;2022-12-15T07:37:12;13.00;;;6.05;;
69246;SDS011;56358;56.328;43.992;2022-12-15T07:39:13;15.75;;;6.00;;
69246;SDS011;56358;56.328;43.992;2022-12-15T07:41:15;13.80;;;6.00;;
69246;SDS011;56358;56.328;43.992;2022-12-15T07:43:15;16.42;;;5.95;;
69246;SDS011;56358;56.328;43.992;2022-12-15T07:45:16;11.73;;;5.30;;
69246;SDS011;56358;56.328;43.992;2022-12-15T07:47:17;13.10;;;4.93;;
69246;SDS011;56358;56.328;43.992;2022-12-15T07:49:18;14.95;;;6.18;;
69246;SDS011;56358;56.328;43.992;2022-12-15T07:51:19;16.17;;;5.97;;
69246;SDS011;56358;56.328;43.992;2022-12-15T07:53:20;15.48;;;6.60;;
69246;SDS011;56358;56.328;43.992;2022-12-15T07:55:21;19.30;;;5.93;;
69246;SDS011;56358;56.328;43.992;2022-12-15T07:57:21;11.35;;;5.65;;
69246;SDS011;56358;56.328;43.992;2022-12-15T07:59:22;14.90;;;5.38;;
69246;SDS011;56358;56.328;43.992;2022-12-15T08:01:23;13.52;;;6.22;;
69246;SDS011;56358;56.328;43.992;2022-12-15T08:03:24;14.85;;;5.93;;
69246;SDS011;56358;56.328;43.992;2022-12-15T08:05:24;13.88;;;5.88;;
69246;SDS011;56358;56.328;43.992;2022-12-15T08:07:25;15.77;;;6.78;;
69246;SDS011;56358;56.328;43.992;2022-12-15T08:09:25;14.23;;;5.55;;
69246;SDS011;56358;56.328;43.992;2022-12-15T08:11:26;13.48;;;5.47;;
69246;SDS011;56358;56.328;43.992;2022-12-15T08:13:27;19.13;;;7.80;;
69246;SDS011;56358;56.328;43.992;2022-12-15T08:15:27;14.68;;;6.60;;
69246;SDS011;56358;56.328;43.992;2022-12-15T08:17:28;17.70;;;6.28;;
69246;SDS011;56358;56.328;43.992;2022-12-15T08:19:29;14.25;;;6.68;;
69246;SDS011;56358;56.328;43.992;2022-12-15T08:21:30;13.07;;;5.78;;
69246;SDS011;56358;56.328;43.992;2022-12-15T08:23:32;14.68;;;7.05;;
69246;SDS011;56358;56.328;43.992;2022-12-15T08:25:33;15.48;;;6.32;;
69246;SDS011;56358;56.328;43.992;2022-12-15T08:27:34;17.25;;;6.80;;
69246;SDS011;56358;56.328;43.992;2022-12-15T08:29:34;17.05;;;6.55;;
69246;SDS011;56358;56.328;43.992;2022-12-15T08:31:35;14.93;;;6.07;;
69246;SDS011;56358;56.328;43.992;2022-12-15T08:33:36;19.58;;;7.57;;
69246;SDS011;56358;56.328;43.992;2022-12-15T08:35:38;16.35;;;6.53;;
69246;SDS011;56358;56.328;43.992;2022-12-15T08:37:39;15.45;;;6.45;;
69246;SDS011;56358;56.328;43.992;2022-12-15T08:39:40;17.85;;;6.15;;
69246;SDS011;56358;56.328;43.992;2022-12-15T08:41:41;14.40;;;5.47;;
69246;SDS011;56358;56.328;43.992;2022-12-15T08:43:42;20.52;;;7.25;;
69246;SDS011;56358;56.328;43.992;2022-12-15T08:45:44;19.30;;;7.50;;
69246;SDS011;56358;56.328;43.992;2022-12-15T08:47:44;16.08;;;6.57;;
69246;SDS011;56358;56.328;43.992;2022-12-15T08:49:45;17.02;;;6.78;;
69246;SDS011;56358;56.328;43.992;2022-12-15T08:51:47;15.48;;;5.95;;
69246;SDS011;56358;56.328;43.992;2022-12-15T08:53:49;15.23;;;5.85;;
69246;SDS011;56358;56.328;43.992;2022-12-15T08:55:50;12.13;;;5.85;;
69246;SDS011;56358;56.328;43.992;2022-12-15T08:57:52;14.80;;;6.00;;
69246;SDS011;56358;56.328;43.992;2022-12-15T08:59:53;13.70;;;6.03;;
69246;SDS011;56358;56.328;43.992;2022-12-15T09:01:54;13.40;;;5.25;;
69246;SDS011;56358;56.328;43.992;2022-12-15T09:03:55;11.85;;;4.95;;
69246;SDS011;56358;56.328;43.992;2022-12-15T09:06:00;11.65;;;4.93;;
69246;SDS011;56358;56.328;43.992;2022-12-15T09:08:02;16.13;;;5.47;;
69246;SDS011;56358;56.328;43.992;2022-12-15T09:10:03;10.63;;;4.50;;
69246;SDS011;56358;56.328;43.992;2022-12-15T09:12:04;13.95;;;5.20;;
69246;SDS011;56358;56.328;43.992;2022-12-15T09:14:05;17.10;;;6.32;;
69246;SDS011;56358;56.328;43.992;2022-12-15T09:16:07;13.45;;;5.60;;
69246;SDS011;56358;56.328;43.992;2022-12-15T09:18:14;19.67;;;6.85;;
69246;SDS011;56358;56.328;43.992;2022-12-15T09:20:15;19.08;;;7.10;;
69246;SDS011;56358;56.328;43.992;2022-12-15T09:22:16;14.40;;;6.22;;
69246;SDS011;56358;56.328;43.992;2022-12-15T09:24:16;17.25;;;6.38;;
69246;SDS011;56358;56.328;43.992;2022-12-15T09:26:18;12.07;;;5.65;;
69246;SDS011;56358;56.328;43.992;2022-12-15T09:28:20;19.10;;;6.78;;
69246;SDS011;56358;56.328;43.992;2022-12-15T09:30:21;15.43;;;5.70;;
69246;SDS011;56358;56.328;43.992;2022-12-15T09:32:21;13.20;;;6.13;;
69246;SDS011;56358;56.328;43.992;2022-12-15T09:34:22;14.68;;;6.43;;
69246;SDS011;56358;56.328;43.992;2022-12-15T09:36:23;16.90;;;7.13;;
69246;SDS011;56358;56.328;43.992;2022-12-15T09:38:24;14.85;;;6.15;;
69246;SDS011;56358;56.328;43.992;2022-12-15T09:40:25;17.63;;;6.72;;
69246;SDS011;56358;56.328;43.992;2022-12-15T09:42:27;18.42;;;6.75;;
69246;SDS011;56358;56.328;43.992;2022-12-15T09:44:29;16.27;;;6.95;;
69246;SDS011;56358;56.328;43.992;2022-12-15T09:48:39;13.73;;;4.90;;
69246;SDS011;56358;56.328;43.992;2022-12-15T09:50:45;13.30;;;5.75;;
69246;SDS011;56358;56.328;43.992;2022-12-15T09:52:50;17.67;;;6.35;;
69246;SDS011;56358;56.328;43.992;2022-12-15T09:54:56;15.70;;;5.53;;
69246;SDS011;56358;56.328;43.992;2022-12-15T09:56:59;16.23;;;5.88;;
69246;SDS011;56358;56.328;43.992;2022-12-15T10:01:22;12.88;;;5.63;;
69246;SDS011;56358;56.328;43.992;2022-12-15T10:03:53;12.52;;;4.82;;
69246;SDS011;56358;56.328;43.992;2022-12-15T10:06:20;13.77;;;5.57;;
69246;SDS011;56358;56.328;43.992;2022-12-15T10:08:30;14.27;;;5.65;;
69246;SDS011;56358;56.328;43.992;2022-12-15T10:10:38;20.20;;;6.07;;
69246;SDS011;56358;56.328;43.992;2022-12-15T10:12:46;14.52;;;6.93;;
69246;SDS011;56358;56.328;43.992;2022-12-15T10:17:32;12.48;;;5.20;;
69246;SDS011;56358;56.328;43.992;2022-12-15T10:19:59;13.65;;;4.82;;
69246;SDS011;56358;56.328;43.992;2022-12-15T10:22:04;14.35;;;5.85;;
69246;SDS011;56358;56.328;43.992;2022-12-15T10:24:14;13.18;;;5.40;;
69246;SDS011;56358;56.328;43.992;2022-12-15T10:26:18;14.88;;;5.70;;
69246;SDS011;56358;56.328;43.992;2022-12-15T10:30:37;12.40;;;5.35;;
69246;SDS011;56358;56.328;43.992;2022-12-15T10:33:01;16.58;;;5.88;;
69246;SDS011;56358;56.328;43.992;2022-12-15T10:35:20;11.32;;;4.65;;
69246;SDS011;56358;56.328;43.992;2022-12-15T10:37:24;16.92;;;5.68;;
69246;SDS011;56358;56.328;43.992;2022-12-15T10:39:38;14.77;;;5.07;;
69246;SDS011;56358;56.328;43.992;2022-12-15T10:41:40;14.60;;;6.38;;
69246;SDS011;56358;56.328;43.992;2022-12-15T10:43:42;15.10;;;5.07;;
69246;SDS011;56358;56.328;43.992;2022-12-15T10:45:44;17.75;;;5.35;;
69246;SDS011;56358;56.328;43.992;2022-12-15T10:47:45;14.90;;;5.85;;
69246;SDS011;56358;56.328;43.992;2022-12-15T10:50:20;15.23;;;5.45;;
69246;SDS011;56358;56.328;43.992;2022-12-15T10:54:42;13.60;;;5.20;;
69246;SDS011;56358;56.328;43.992;2022-12-15T10:58:56;17.63;;;5.95;;
69246;SDS011;56358;56.328;43.992;2022-12-15T11:01:06;15.57;;;6.60;;
69246;SDS011;56358;56.328;43.992;2022-12-15T11:03:23;15.27;;;5.55;;
69246;SDS011;56358;56.328;43.992;2022-12-15T11:05:25;10.98;;;4.68;;
69246;SDS011;56358;56.328;43.992;2022-12-15T11:07:48;12.40;;;5.70;;
69246;SDS011;56358;56.328;43.992;2022-12-15T11:09:47;13.77;;;5.28;;
69246;SDS011;56358;56.328;43.992;2022-12-15T11:11:48;22.45;;;5.55;;
69246;SDS011;56358;56.328;43.992;2022-12-15T11:14:11;17.80;;;6.55;;
69246;SDS011;56358;56.328;43.992;2022-12-15T11:16:18;15.18;;;5.60;;
69246;SDS011;56358;56.328;43.992;2022-12-15T11:20:38;16.10;;;6.05;;
69246;SDS011;56358;56.328;43.992;2022-12-15T11:24:53;12.25;;;5.30;;
69246;SDS011;56358;56.328;43.992;2022-12-15T11:29:17;12.15;;;5.18;;
69246;SDS011;56358;56.328;43.992;2022-12-15T11:33:43;13.18;;;4.82;;
69246;SDS011;56358;56.328;43.992;2022-12-15T11:38:20;12.85;;;4.63;;
69246;SDS011;56358;56.328;43.992;2022-12-15T11:40:39;11.93;;;4.95;;
69246;SDS011;56358;56.328;43.992;2022-12-15T11:47:14;12.13;;;4.50;;
69246;SDS011;56358;56.328;43.992;2022-12-15T11:49:38;12.77;;;4.30;;
69246;SDS011;56358;56.328;43.992;2022-12-15T11:51:52;10.40;;;4.53;;
69246;SDS011;56358;56.328;43.992;2022-12-15T11:54:10;9.13;;;4.10;;
69246;SDS011;56358;56.328;43.992;2022-12-15T12:03:43;10.02;;;3.88;;
69246;SDS011;56358;56.328;43.992;2022-12-15T12:05:50;8.82;;;3.63;;
69246;SDS011;56358;56.328;43.992;2022-12-15T12:10:30;11.48;;;4.07;;
69246;SDS011;56358;56.328;43.992;2022-12-15T12:12:59;12.40;;;4.47;;
69246;SDS011;56358;56.328;43.992;2022-12-15T12:19:51;9.57;;;4.38;;
69246;SDS011;56358;56.328;43.992;2022-12-15T12:22:01;13.13;;;4.10;;
69246;SDS011;56358;56.328;43.992;2022-12-15T12:26:18;12.15;;;4.65;;
69246;SDS011;56358;56.328;43.992;2022-12-15T12:28:31;11.25;;;4.18;;
69246;SDS011;56358;56.328;43.992;2022-12-15T12:30:41;9.32;;;3.60;;
69246;SDS011;56358;56.328;43.992;2022-12-15T12:32:58;8.75;;;3.47;;
69246;SDS011;56358;56.328;43.992;2022-12-15T12:37:42;9.98;;;3.55;;
69246;SDS011;56358;56.328;43.992;2022-12-15T12:39:48;12.38;;;3.95;;
69246;SDS011;56358;56.328;43.992;2022-12-15T12:42:13;9.27;;;3.83;;
69246;SDS011;56358;56.328;43.992;2022-12-15T12:44:29;10.88;;;4.07;;
69246;SDS011;56358;56.328;43.992;2022-12-15T12:46:33;9.32;;;4.15;;
69246;SDS011;56358;56.328;43.992;2022-12-15T12:53:31;5.68;;;3.10;;
69246;SDS011;56358;56.328;43.992;2022-12-15T12:55:37;13.40;;;4.53;;
69246;SDS011;56358;56.328;43.992;2022-12-15T12:57:40;9.18;;;4.05;;
69246;SDS011;56358;56.328;43.992;2022-12-15T12:59:43;13.60;;;4.07;;
69246;SDS011;56358;56.328;43.992;2022-12-15T13:01:56;8.85;;;3.53;;
69246;SDS011;56358;56.328;43.992;2022-12-15T13:08:46;8.90;;;3.63;;
69246;SDS011;56358;56.328;43.992;2022-12-15T13:10:49;8.40;;;3.40;;
69246;SDS011;56358;56.328;43.992;2022-12-15T13:12:53;10.60;;;3.58;;
69246;SDS011;56358;56.328;43.992;2022-12-15T13:14:55;13.27;;;4.05;;
69246;SDS011;56358;56.328;43.992;2022-12-15T13:19:13;9.45;;;3.42;;
69246;SDS011;56358;56.328;43.992;2022-12-15T13:21:43;8.23;;;3.22;;
69246;SDS011;56358;56.328;43.992;2022-12-15T13:23:40;10.40;;;4.10;;
69246;SDS011;56358;56.328;43.992;2022-12-15T13:25:42;9.10;;;4.10;;
69246;SDS011;56358;56.328;43.992;2022-12-15T13:27:49;12.18;;;4.10;;
69246;SDS011;56358;56.328;43.992;2022-12-15T13:30:35;8.75;;;4.13;;
69246;SDS011;56358;56.328;43.992;2022-12-15T13:32:23;20.27;;;7.30;;
69246;SDS011;56358;56.328;43.992;2022-12-15T13:34:36;23.05;;;9.50;;
69246;SDS011;56358;56.328;43.992;2022-12-15T13:38:51;8.85;;;3.20;;
69246;SDS011;56358;56.328;43.992;2022-12-15T13:40:54;10.93;;;4.30;;
69246;SDS011;56358;56.328;43.992;2022-12-15T13:42:59;16.60;;;7.47;;
69246;SDS011;56358;56.328;43.992;2022-12-15T13:45:04;14.05;;;4.80;;
69246;SDS011;56358;56.328;43.992;2022-12-15T13:47:21;11.55;;;4.65;;
69246;SDS011;56358;56.328;43.992;2022-12-15T13:49:33;10.43;;;4.10;;
69246;SDS011;56358;56.328;43.992;2022-12-15T13:51:41;13.15;;;5.18;;
69246;SDS011;56358;56.328;43.992;2022-12-15T13:53:44;12.75;;;3.92;;
69246;SDS011;56358;56.328;43.992;2022-12-15T13:55:51;11.13;;;4.15;;
69246;SDS011;56358;56.328;43.992;2022-12-15T13:58:16;15.30;;;5.60;;